sensor_id;sensor_type;location;lat;lon;timestamp;temperature;humidity
11961;DHT22;6040;49.358;11.140;2022-09-14T00:02:21;16.50;99.90
11961;DHT22;6040;49.358;11.140;2022-09-14T00:04:47;16.50;99.90
11961;DHT22;6040;49.358;11.140;2022-09-14T00:07:15;16.50;99.90
11961;DHT22;6040;49.358;11.140;2022-09-14T00:09:42;16.60;99.90
11961;DHT22;6040;49.358;11.140;2022-09-14T00:12:09;16.50;99.90
11961;DHT22;6040;49.358;11.140;2022-09-14T00:14:36;16.60;99.90
11961;DHT22;6040;49.358;11.140;2022-09-14T00:17:04;16.60;99.90
11961;DHT22;6040;49.358;11.140;2022-09-14T00:19:32;16.40;99.90
11961;DHT22;6040;49.358;11.140;2022-09-14T00:21:59;16.70;99.90
11961;DHT22;6040;49.358;11.140;2022-09-14T00:24:27;16.60;99.90
11961;DHT22;6040;49.358;11.140;2022-09-14T00:26:56;16.60;99.90
11961;DHT22;6040;49.358;11.140;2022-09-14T00:29:23;16.60;99.90
11961;DHT22;6040;49.358;11.140;2022-09-14T00:31:50;16.60;99.90
11961;DHT22;6040;49.358;11.140;2022-09-14T00:34:17;16.70;99.90
11961;DHT22;6040;49.358;11.140;2022-09-14T00:36:47;16.60;99.90
11961;DHT22;6040;49.358;11.140;2022-09-14T00:39:16;16.60;99.90
11961;DHT22;6040;49.358;11.140;2022-09-14T00:41:45;16.80;99.90
11961;DHT22;6040;49.358;11.140;2022-09-14T00:47:17;16.50;99.90
11961;DHT22;6040;49.358;11.140;2022-09-14T00:49:45;16.50;99.90
11961;DHT22;6040;49.358;11.140;2022-09-14T00:52:16;16.70;99.90
11961;DHT22;6040;49.358;11.140;2022-09-14T00:54:45;16.70;99.90
11961;DHT22;6040;49.358;11.140;2022-09-14T00:57:14;16.60;99.90
11961;DHT22;6040;49.358;11.140;2022-09-14T00:59:42;16.60;99.90
11961;DHT22;6040;49.358;11.140;2022-09-14T01:02:10;16.60;99.90
11961;DHT22;6040;49.358;11.140;2022-09-14T01:04:39;16.60;99.90
11961;DHT22;6040;49.358;11.140;2022-09-14T01:07:14;16.50;99.90
11961;DHT22;6040;49.358;11.140;2022-09-14T01:09:50;16.70;99.90
11961;DHT22;6040;49.358;11.140;2022-09-14T01:12:26;16.60;99.90
11961;DHT22;6040;49.358;11.140;2022-09-14T01:15:01;16.70;99.90
11961;DHT22;6040;49.358;11.140;2022-09-14T01:17:33;16.50;99.90
11961;DHT22;6040;49.358;11.140;2022-09-14T01:20:12;16.80;99.90
11961;DHT22;6040;49.358;11.140;2022-09-14T01:22:47;16.70;99.90
11961;DHT22;6040;49.358;11.140;2022-09-14T01:25:27;16.70;99.90
11961;DHT22;6040;49.358;11.140;2022-09-14T01:28:00;16.60;99.90
11961;DHT22;6040;49.358;11.140;2022-09-14T01:30:30;16.50;99.90
11961;DHT22;6040;49.358;11.140;2022-09-14T01:33:02;16.70;99.90
11961;DHT22;6040;49.358;11.140;2022-09-14T01:35:34;16.80;99.90
11961;DHT22;6040;49.358;11.140;2022-09-14T01:38:04;16.70;99.90
11961;DHT22;6040;49.358;11.140;2022-09-14T01:40:37;16.70;99.90
11961;DHT22;6040;49.358;11.140;2022-09-14T01:43:08;16.60;99.90
11961;DHT22;6040;49.358;11.140;2022-09-14T01:45:37;16.80;99.90
11961;DHT22;6040;49.358;11.140;2022-09-14T01:48:08;16.60;99.90
11961;DHT22;6040;49.358;11.140;2022-09-14T01:50:39;16.70;99.90
11961;DHT22;6040;49.358;11.140;2022-09-14T01:53:09;16.60;99.90
11961;DHT22;6040;49.358;11.140;2022-09-14T01:55:41;16.60;99.90
11961;DHT22;6040;49.358;11.140;2022-09-14T01:58:13;16.50;99.90
11961;DHT22;6040;49.358;11.140;2022-09-14T02:00:43;16.60;99.90
11961;DHT22;6040;49.358;11.140;2022-09-14T02:03:14;16.80;99.90
11961;DHT22;6040;49.358;11.140;2022-09-14T02:05:45;16.70;99.90
11961;DHT22;6040;49.358;11.140;2022-09-14T02:08:14;16.60;99.90
11961;DHT22;6040;49.358;11.140;2022-09-14T02:10:42;16.60;99.90
11961;DHT22;6040;49.358;11.140;2022-09-14T02:13:10;16.60;99.90
11961;DHT22;6040;49.358;11.140;2022-09-14T02:15:37;16.60;99.90
11961;DHT22;6040;49.358;11.140;2022-09-14T02:18:04;16.60;99.90
11961;DHT22;6040;49.358;11.140;2022-09-14T02:20:36;16.60;99.90
11961;DHT22;6040;49.358;11.140;2022-09-14T02:23:05;16.60;99.90
11961;DHT22;6040;49.358;11.140;2022-09-14T02:25:32;16.70;99.90
11961;DHT22;6040;49.358;11.140;2022-09-14T02:28:01;16.70;99.90
11961;DHT22;6040;49.358;11.140;2022-09-14T02:30:34;16.50;99.90
11961;DHT22;6040;49.358;11.140;2022-09-14T02:33:09;16.70;99.90
11961;DHT22;6040;49.358;11.140;2022-09-14T02:35:40;16.60;99.90
11961;DHT22;6040;49.358;11.140;2022-09-14T02:38:19;16.60;99.90
11961;DHT22;6040;49.358;11.140;2022-09-14T02:40:52;16.60;99.90
11961;DHT22;6040;49.358;11.140;2022-09-14T02:43:30;16.70;99.90
11961;DHT22;6040;49.358;11.140;2022-09-14T02:46:03;16.50;99.90
11961;DHT22;6040;49.358;11.140;2022-09-14T02:48:37;16.80;99.90
11961;DHT22;6040;49.358;11.140;2022-09-14T02:51:16;16.80;99.90
11961;DHT22;6040;49.358;11.140;2022-09-14T02:53:46;16.60;99.90
11961;DHT22;6040;49.358;11.140;2022-09-14T02:56:15;16.50;99.90
11961;DHT22;6040;49.358;11.140;2022-09-14T02:58:44;16.60;99.90
11961;DHT22;6040;49.358;11.140;2022-09-14T03:01:14;16.90;99.90
11961;DHT22;6040;49.358;11.140;2022-09-14T03:03:41;16.70;99.90
11961;DHT22;6040;49.358;11.140;2022-09-14T03:06:08;16.50;99.90
11961;DHT22;6040;49.358;11.140;2022-09-14T03:08:35;16.60;99.90
11961;DHT22;6040;49.358;11.140;2022-09-14T03:11:02;16.80;99.90
11961;DHT22;6040;49.358;11.140;2022-09-14T03:13:28;16.70;99.90
11961;DHT22;6040;49.358;11.140;2022-09-14T03:15:55;16.70;99.90
11961;DHT22;6040;49.358;11.140;2022-09-14T03:18:23;16.70;99.90
11961;DHT22;6040;49.358;11.140;2022-09-14T03:20:50;16.50;99.90
11961;DHT22;6040;49.358;11.140;2022-09-14T03:23:17;16.70;99.90
11961;DHT22;6040;49.358;11.140;2022-09-14T03:25:45;16.50;99.90
11961;DHT22;6040;49.358;11.140;2022-09-14T03:28:12;16.60;99.90
11961;DHT22;6040;49.358;11.140;2022-09-14T03:30:39;16.70;99.90
11961;DHT22;6040;49.358;11.140;2022-09-14T03:33:06;16.50;99.90
11961;DHT22;6040;49.358;11.140;2022-09-14T03:35:34;16.70;99.90
11961;DHT22;6040;49.358;11.140;2022-09-14T03:38:01;16.70;99.90
11961;DHT22;6040;49.358;11.140;2022-09-14T03:40:28;16.60;99.90
11961;DHT22;6040;49.358;11.140;2022-09-14T03:42:55;16.70;99.90
11961;DHT22;6040;49.358;11.140;2022-09-14T03:45:22;16.70;99.90
11961;DHT22;6040;49.358;11.140;2022-09-14T03:47:49;16.60;99.90
11961;DHT22;6040;49.358;11.140;2022-09-14T03:50:17;16.70;99.90
11961;DHT22;6040;49.358;11.140;2022-09-14T03:52:46;16.50;99.90
11961;DHT22;6040;49.358;11.140;2022-09-14T03:55:12;16.60;99.90
11961;DHT22;6040;49.358;11.140;2022-09-14T03:57:39;16.70;99.90
11961;DHT22;6040;49.358;11.140;2022-09-14T04:00:07;16.70;99.90
11961;DHT22;6040;49.358;11.140;2022-09-14T04:02:34;16.50;99.90
11961;DHT22;6040;49.358;11.140;2022-09-14T04:05:01;16.50;99.90
11961;DHT22;6040;49.358;11.140;2022-09-14T04:07:28;16.80;99.90
11961;DHT22;6040;49.358;11.140;2022-09-14T04:09:56;16.60;99.90
11961;DHT22;6040;49.358;11.140;2022-09-14T04:12:23;16.70;99.90
11961;DHT22;6040;49.358;11.140;2022-09-14T04:14:50;16.50;99.90
11961;DHT22;6040;49.358;11.140;2022-09-14T04:17:17;16.70;99.90
11961;DHT22;6040;49.358;11.140;2022-09-14T04:19:44;16.70;99.90
11961;DHT22;6040;49.358;11.140;2022-09-14T04:22:10;16.60;99.90
11961;DHT22;6040;49.358;11.140;2022-09-14T04:24:37;16.60;99.90
11961;DHT22;6040;49.358;11.140;2022-09-14T04:27:05;16.60;99.90
11961;DHT22;6040;49.358;11.140;2022-09-14T04:29:32;16.60;99.90
11961;DHT22;6040;49.358;11.140;2022-09-14T04:31:59;16.60;99.90
11961;DHT22;6040;49.358;11.140;2022-09-14T04:34:26;16.60;99.90
11961;DHT22;6040;49.358;11.140;2022-09-14T04:36:53;16.50;99.90
11961;DHT22;6040;49.358;11.140;2022-09-14T04:39:20;16.70;99.90
11961;DHT22;6040;49.358;11.140;2022-09-14T04:41:47;16.50;99.90
11961;DHT22;6040;49.358;11.140;2022-09-14T04:44:15;16.70;99.90
11961;DHT22;6040;49.358;11.140;2022-09-14T04:46:42;16.50;99.90
11961;DHT22;6040;49.358;11.140;2022-09-14T04:49:09;16.80;99.90
11961;DHT22;6040;49.358;11.140;2022-09-14T04:51:37;16.70;99.90
11961;DHT22;6040;49.358;11.140;2022-09-14T04:54:05;16.50;99.90
11961;DHT22;6040;49.358;11.140;2022-09-14T04:56:34;16.50;99.90
11961;DHT22;6040;49.358;11.140;2022-09-14T04:59:02;16.80;99.90
11961;DHT22;6040;49.358;11.140;2022-09-14T05:01:33;16.60;99.90
11961;DHT22;6040;49.358;11.140;2022-09-14T05:04:00;16.70;99.90
11961;DHT22;6040;49.358;11.140;2022-09-14T05:06:29;16.50;99.90
11961;DHT22;6040;49.358;11.140;2022-09-14T05:08:57;16.60;99.90
11961;DHT22;6040;49.358;11.140;2022-09-14T05:11:27;16.70;99.90
11961;DHT22;6040;49.358;11.140;2022-09-14T05:13:55;16.50;99.90
11961;DHT22;6040;49.358;11.140;2022-09-14T05:16:25;16.60;99.90
11961;DHT22;6040;49.358;11.140;2022-09-14T05:18:55;16.60;99.90
11961;DHT22;6040;49.358;11.140;2022-09-14T05:21:23;16.60;99.90
11961;DHT22;6040;49.358;11.140;2022-09-14T05:23:53;16.80;99.90
11961;DHT22;6040;49.358;11.140;2022-09-14T05:26:21;16.70;99.90
11961;DHT22;6040;49.358;11.140;2022-09-14T05:28:49;16.70;99.90
11961;DHT22;6040;49.358;11.140;2022-09-14T05:31:17;16.70;99.90
11961;DHT22;6040;49.358;11.140;2022-09-14T05:33:44;16.70;99.90
11961;DHT22;6040;49.358;11.140;2022-09-14T05:36:12;16.60;99.90
11961;DHT22;6040;49.358;11.140;2022-09-14T05:38:39;16.60;99.90
11961;DHT22;6040;49.358;11.140;2022-09-14T05:41:09;16.60;99.90
11961;DHT22;6040;49.358;11.140;2022-09-14T05:43:36;16.60;99.90
11961;DHT22;6040;49.358;11.140;2022-09-14T05:46:05;16.60;99.90
11961;DHT22;6040;49.358;11.140;2022-09-14T05:48:33;16.60;99.90
11961;DHT22;6040;49.358;11.140;2022-09-14T05:51:01;16.50;99.90
11961;DHT22;6040;49.358;11.140;2022-09-14T05:53:29;16.50;99.90
11961;DHT22;6040;49.358;11.140;2022-09-14T05:56:00;16.60;99.90
11961;DHT22;6040;49.358;11.140;2022-09-14T05:58:27;16.60;99.90
11961;DHT22;6040;49.358;11.140;2022-09-14T06:00:54;16.60;99.90
11961;DHT22;6040;49.358;11.140;2022-09-14T06:03:21;16.60;99.90
11961;DHT22;6040;49.358;11.140;2022-09-14T06:05:48;16.60;99.90
11961;DHT22;6040;49.358;11.140;2022-09-14T06:08:15;16.50;99.90
11961;DHT22;6040;49.358;11.140;2022-09-14T06:10:43;16.60;99.90
11961;DHT22;6040;49.358;11.140;2022-09-14T06:13:10;16.60;99.90
11961;DHT22;6040;49.358;11.140;2022-09-14T06:15:36;16.60;99.90
11961;DHT22;6040;49.358;11.140;2022-09-14T06:18:03;16.60;99.90
11961;DHT22;6040;49.358;11.140;2022-09-14T06:20:30;16.60;99.90
11961;DHT22;6040;49.358;11.140;2022-09-14T06:22:57;16.60;99.90
11961;DHT22;6040;49.358;11.140;2022-09-14T06:25:24;16.60;99.90
11961;DHT22;6040;49.358;11.140;2022-09-14T06:27:54;16.60;99.90
11961;DHT22;6040;49.358;11.140;2022-09-14T06:30:20;16.80;99.90
11961;DHT22;6040;49.358;11.140;2022-09-14T06:32:47;16.80;99.90
11961;DHT22;6040;49.358;11.140;2022-09-14T06:35:14;16.80;99.90
11961;DHT22;6040;49.358;11.140;2022-09-14T06:37:41;16.70;99.90
11961;DHT22;6040;49.358;11.140;2022-09-14T06:40:08;16.70;99.90
11961;DHT22;6040;49.358;11.140;2022-09-14T06:42:35;16.70;99.90
11961;DHT22;6040;49.358;11.140;2022-09-14T06:45:05;16.70;99.90
11961;DHT22;6040;49.358;11.140;2022-09-14T06:47:32;16.70;99.90
11961;DHT22;6040;49.358;11.140;2022-09-14T06:49:59;16.70;99.90
11961;DHT22;6040;49.358;11.140;2022-09-14T06:52:26;16.70;99.90
11961;DHT22;6040;49.358;11.140;2022-09-14T06:54:52;16.60;99.90
11961;DHT22;6040;49.358;11.140;2022-09-14T06:57:19;16.60;99.90
11961;DHT22;6040;49.358;11.140;2022-09-14T06:59:46;16.60;99.90
11961;DHT22;6040;49.358;11.140;2022-09-14T07:02:15;16.60;99.90
11961;DHT22;6040;49.358;11.140;2022-09-14T07:04:42;16.60;99.90
11961;DHT22;6040;49.358;11.140;2022-09-14T07:07:09;16.60;99.90
11961;DHT22;6040;49.358;11.140;2022-09-14T07:09:36;16.60;99.90
11961;DHT22;6040;49.358;11.140;2022-09-14T07:12:03;16.70;99.90
11961;DHT22;6040;49.358;11.140;2022-09-14T07:14:30;16.70;99.90
11961;DHT22;6040;49.358;11.140;2022-09-14T07:16:57;16.70;99.90
11961;DHT22;6040;49.358;11.140;2022-09-14T07:19:25;16.80;99.90
11961;DHT22;6040;49.358;11.140;2022-09-14T07:21:52;16.80;99.90
11961;DHT22;6040;49.358;11.140;2022-09-14T07:24:19;16.90;99.90
11961;DHT22;6040;49.358;11.140;2022-09-14T07:26:46;17.50;99.90
11961;DHT22;6040;49.358;11.140;2022-09-14T07:29:15;16.90;99.90
11961;DHT22;6040;49.358;11.140;2022-09-14T07:31:44;16.90;99.90
11961;DHT22;6040;49.358;11.140;2022-09-14T07:34:12;16.90;99.90
11961;DHT22;6040;49.358;11.140;2022-09-14T07:36:41;16.90;99.90
11961;DHT22;6040;49.358;11.140;2022-09-14T07:39:10;16.90;99.90
11961;DHT22;6040;49.358;11.140;2022-09-14T07:41:37;16.90;99.90
11961;DHT22;6040;49.358;11.140;2022-09-14T07:44:06;17.00;99.90
11961;DHT22;6040;49.358;11.140;2022-09-14T07:46:37;17.00;99.90
11961;DHT22;6040;49.358;11.140;2022-09-14T07:49:05;17.10;99.90
11961;DHT22;6040;49.358;11.140;2022-09-14T07:51:34;17.10;99.90
11961;DHT22;6040;49.358;11.140;2022-09-14T07:54:03;17.10;99.90
11961;DHT22;6040;49.358;11.140;2022-09-14T07:56:30;17.20;99.90
11961;DHT22;6040;49.358;11.140;2022-09-14T07:58:58;17.20;99.90
11961;DHT22;6040;49.358;11.140;2022-09-14T08:01:25;17.30;99.90
11961;DHT22;6040;49.358;11.140;2022-09-14T08:03:54;17.30;99.90
11961;DHT22;6040;49.358;11.140;2022-09-14T08:06:24;17.20;99.90
11961;DHT22;6040;49.358;11.140;2022-09-14T08:08:52;17.40;99.90
11961;DHT22;6040;49.358;11.140;2022-09-14T08:11:23;17.40;99.90
11961;DHT22;6040;49.358;11.140;2022-09-14T08:13:51;17.40;99.90
11961;DHT22;6040;49.358;11.140;2022-09-14T08:16:19;17.40;99.90
11961;DHT22;6040;49.358;11.140;2022-09-14T08:18:51;17.60;99.90
11961;DHT22;6040;49.358;11.140;2022-09-14T08:21:18;17.50;99.90
11961;DHT22;6040;49.358;11.140;2022-09-14T08:23:45;17.50;99.90
11961;DHT22;6040;49.358;11.140;2022-09-14T08:26:12;17.60;99.90
11961;DHT22;6040;49.358;11.140;2022-09-14T08:28:42;17.70;99.90
11961;DHT22;6040;49.358;11.140;2022-09-14T08:31:11;17.70;99.90
11961;DHT22;6040;49.358;11.140;2022-09-14T08:33:40;17.70;99.90
11961;DHT22;6040;49.358;11.140;2022-09-14T08:36:08;17.70;99.90
11961;DHT22;6040;49.358;11.140;2022-09-14T08:38:35;17.80;99.90
11961;DHT22;6040;49.358;11.140;2022-09-14T08:41:17;17.90;99.90
11961;DHT22;6040;49.358;11.140;2022-09-14T08:43:46;18.00;99.90
11961;DHT22;6040;49.358;11.140;2022-09-14T08:46:20;18.10;99.90
11961;DHT22;6040;49.358;11.140;2022-09-14T08:48:48;18.10;99.90
11961;DHT22;6040;49.358;11.140;2022-09-14T08:51:16;18.10;99.90
11961;DHT22;6040;49.358;11.140;2022-09-14T08:53:44;18.10;99.90
11961;DHT22;6040;49.358;11.140;2022-09-14T08:56:14;18.10;99.90
11961;DHT22;6040;49.358;11.140;2022-09-14T08:58:57;18.20;99.90
11961;DHT22;6040;49.358;11.140;2022-09-14T09:01:31;18.20;99.90
11961;DHT22;6040;49.358;11.140;2022-09-14T09:04:12;18.20;99.90
11961;DHT22;6040;49.358;11.140;2022-09-14T09:06:47;18.30;99.90
11961;DHT22;6040;49.358;11.140;2022-09-14T09:09:20;18.20;99.90
11961;DHT22;6040;49.358;11.140;2022-09-14T09:11:50;18.30;99.90
11961;DHT22;6040;49.358;11.140;2022-09-14T09:14:23;18.20;99.90
11961;DHT22;6040;49.358;11.140;2022-09-14T09:16:53;18.20;99.90
11961;DHT22;6040;49.358;11.140;2022-09-14T09:19:26;18.30;99.90
11961;DHT22;6040;49.358;11.140;2022-09-14T09:21:54;18.30;99.90
11961;DHT22;6040;49.358;11.140;2022-09-14T09:24:27;18.40;99.90
11961;DHT22;6040;49.358;11.140;2022-09-14T09:26:55;18.40;99.90
11961;DHT22;6040;49.358;11.140;2022-09-14T09:29:24;18.40;99.90
11961;DHT22;6040;49.358;11.140;2022-09-14T09:31:53;18.50;99.90
11961;DHT22;6040;49.358;11.140;2022-09-14T09:34:25;18.60;99.90
11961;DHT22;6040;49.358;11.140;2022-09-14T09:36:52;18.60;99.90
11961;DHT22;6040;49.358;11.140;2022-09-14T09:39:20;18.70;99.90
11961;DHT22;6040;49.358;11.140;2022-09-14T09:41:50;18.70;99.90
11961;DHT22;6040;49.358;11.140;2022-09-14T09:44:18;18.80;99.90
11961;DHT22;6040;49.358;11.140;2022-09-14T09:46:48;18.90;99.90
11961;DHT22;6040;49.358;11.140;2022-09-14T09:49:19;19.00;99.90
11961;DHT22;6040;49.358;11.140;2022-09-14T09:51:46;19.00;99.90
11961;DHT22;6040;49.358;11.140;2022-09-14T09:54:25;19.00;99.90
11961;DHT22;6040;49.358;11.140;2022-09-14T09:56:55;19.00;99.90
11961;DHT22;6040;49.358;11.140;2022-09-14T09:59:29;19.00;99.90
11961;DHT22;6040;49.358;11.140;2022-09-14T10:02:22;19.00;99.90
11961;DHT22;6040;49.358;11.140;2022-09-14T10:04:58;19.00;99.90
11961;DHT22;6040;49.358;11.140;2022-09-14T10:07:27;19.00;99.90
11961;DHT22;6040;49.358;11.140;2022-09-14T10:09:59;19.10;99.90
11961;DHT22;6040;49.358;11.140;2022-09-14T10:12:27;19.30;99.90
11961;DHT22;6040;49.358;11.140;2022-09-14T10:15:16;19.40;99.90
11961;DHT22;6040;49.358;11.140;2022-09-14T10:18:07;19.60;99.90
11961;DHT22;6040;49.358;11.140;2022-09-14T10:20:36;19.90;99.90
11961;DHT22;6040;49.358;11.140;2022-09-14T10:23:23;20.20;99.90
11961;DHT22;6040;49.358;11.140;2022-09-14T10:25:52;20.50;99.90
11961;DHT22;6040;49.358;11.140;2022-09-14T10:28:22;20.80;99.90
11961;DHT22;6040;49.358;11.140;2022-09-14T10:30:53;21.10;99.90
11961;DHT22;6040;49.358;11.140;2022-09-14T10:33:23;21.40;99.90
11961;DHT22;6040;49.358;11.140;2022-09-14T10:36:06;21.50;99.90
11961;DHT22;6040;49.358;11.140;2022-09-14T10:38:40;21.60;99.90
11961;DHT22;6040;49.358;11.140;2022-09-14T10:41:23;21.70;99.90
11961;DHT22;6040;49.358;11.140;2022-09-14T10:44:06;21.70;99.90
11961;DHT22;6040;49.358;11.140;2022-09-14T10:46:41;21.80;99.90
11961;DHT22;6040;49.358;11.140;2022-09-14T10:49:25;21.70;99.90
11961;DHT22;6040;49.358;11.140;2022-09-14T10:51:59;21.70;99.90
11961;DHT22;6040;49.358;11.140;2022-09-14T10:54:47;21.70;99.90
11961;DHT22;6040;49.358;11.140;2022-09-14T10:57:24;21.70;99.90
11961;DHT22;6040;49.358;11.140;2022-09-14T10:59:53;21.70;99.90
11961;DHT22;6040;49.358;11.140;2022-09-14T11:05:29;21.80;99.90
11961;DHT22;6040;49.358;11.140;2022-09-14T11:08:11;21.80;99.90
11961;DHT22;6040;49.358;11.140;2022-09-14T11:10:51;21.70;99.90
11961;DHT22;6040;49.358;11.140;2022-09-14T11:13:41;21.60;99.90
11961;DHT22;6040;49.358;11.140;2022-09-14T11:16:34;21.60;99.90
11961;DHT22;6040;49.358;11.140;2022-09-14T11:19:17;21.70;99.90
11961;DHT22;6040;49.358;11.140;2022-09-14T11:21:56;21.90;99.90
11961;DHT22;6040;49.358;11.140;2022-09-14T11:24:32;22.00;99.90
11961;DHT22;6040;49.358;11.140;2022-09-14T11:27:04;22.20;99.90
11961;DHT22;6040;49.358;11.140;2022-09-14T11:29:36;22.40;99.90
11961;DHT22;6040;49.358;11.140;2022-09-14T11:32:08;22.50;99.90
11961;DHT22;6040;49.358;11.140;2022-09-14T11:34:39;22.60;99.90
11961;DHT22;6040;49.358;11.140;2022-09-14T11:37:11;22.60;99.90
11961;DHT22;6040;49.358;11.140;2022-09-14T11:39:41;22.60;99.90
11961;DHT22;6040;49.358;11.140;2022-09-14T11:42:14;22.70;99.90
11961;DHT22;6040;49.358;11.140;2022-09-14T11:44:43;22.90;99.90
11961;DHT22;6040;49.358;11.140;2022-09-14T11:47:14;23.10;99.90
11961;DHT22;6040;49.358;11.140;2022-09-14T11:49:51;23.20;99.90
11961;DHT22;6040;49.358;11.140;2022-09-14T11:52:23;23.20;99.90
11961;DHT22;6040;49.358;11.140;2022-09-14T11:54:51;23.40;99.90
11961;DHT22;6040;49.358;11.140;2022-09-14T11:57:19;23.50;99.90
11961;DHT22;6040;49.358;11.140;2022-09-14T11:59:51;23.40;99.90
11961;DHT22;6040;49.358;11.140;2022-09-14T12:02:58;23.40;99.90
11961;DHT22;6040;49.358;11.140;2022-09-14T12:05:32;23.50;99.90
11961;DHT22;6040;49.358;11.140;2022-09-14T12:08:03;23.60;99.90
11961;DHT22;6040;49.358;11.140;2022-09-14T12:10:30;23.80;99.90
11961;DHT22;6040;49.358;11.140;2022-09-14T12:13:19;24.00;99.90
11961;DHT22;6040;49.358;11.140;2022-09-14T12:15:45;24.10;99.90
11961;DHT22;6040;49.358;11.140;2022-09-14T12:18:22;24.20;99.90
11961;DHT22;6040;49.358;11.140;2022-09-14T12:21:02;24.30;99.90
11961;DHT22;6040;49.358;11.140;2022-09-14T12:23:41;24.30;99.90
11961;DHT22;6040;49.358;11.140;2022-09-14T12:26:27;24.30;99.90
11961;DHT22;6040;49.358;11.140;2022-09-14T12:28:58;24.40;99.90
11961;DHT22;6040;49.358;11.140;2022-09-14T12:32:00;24.30;99.90
11961;DHT22;6040;49.358;11.140;2022-09-14T12:34:29;24.40;99.90
11961;DHT22;6040;49.358;11.140;2022-09-14T12:37:29;24.30;99.90
11961;DHT22;6040;49.358;11.140;2022-09-14T12:40:31;24.40;99.90
11961;DHT22;6040;49.358;11.140;2022-09-14T12:46:30;24.80;99.90
11961;DHT22;6040;49.358;11.140;2022-09-14T12:48:59;25.00;99.90
11961;DHT22;6040;49.358;11.140;2022-09-14T12:51:40;25.20;99.90
11961;DHT22;6040;49.358;11.140;2022-09-14T12:54:21;25.30;99.90
11961;DHT22;6040;49.358;11.140;2022-09-14T12:57:02;25.70;99.90
11961;DHT22;6040;49.358;11.140;2022-09-14T12:59:37;25.80;99.90
11961;DHT22;6040;49.358;11.140;2022-09-14T13:02:37;25.80;99.90
11961;DHT22;6040;49.358;11.140;2022-09-14T13:05:12;25.90;99.90
11961;DHT22;6040;49.358;11.140;2022-09-14T13:07:40;25.90;99.90
11961;DHT22;6040;49.358;11.140;2022-09-14T13:10:17;25.80;99.90
11961;DHT22;6040;49.358;11.140;2022-09-14T13:12:46;25.70;99.90
11961;DHT22;6040;49.358;11.140;2022-09-14T13:15:20;25.70;99.90
11961;DHT22;6040;49.358;11.140;2022-09-14T13:17:58;25.70;99.90
11961;DHT22;6040;49.358;11.140;2022-09-14T13:20:25;25.60;99.90
11961;DHT22;6040;49.358;11.140;2022-09-14T13:22:53;25.50;99.90
11961;DHT22;6040;49.358;11.140;2022-09-14T13:25:29;25.30;99.90
11961;DHT22;6040;49.358;11.140;2022-09-14T13:28:02;24.80;99.90
11961;DHT22;6040;49.358;11.140;2022-09-14T13:30:30;25.30;99.90
11961;DHT22;6040;49.358;11.140;2022-09-14T13:32:59;25.30;99.90
11961;DHT22;6040;49.358;11.140;2022-09-14T13:35:31;25.20;99.90
11961;DHT22;6040;49.358;11.140;2022-09-14T13:38:03;25.20;99.90
11961;DHT22;6040;49.358;11.140;2022-09-14T13:40:30;25.10;99.90
11961;DHT22;6040;49.358;11.140;2022-09-14T13:42:58;24.90;99.90
11961;DHT22;6040;49.358;11.140;2022-09-14T13:45:26;24.80;99.90
11961;DHT22;6040;49.358;11.140;2022-09-14T13:47:53;24.70;99.90
11961;DHT22;6040;49.358;11.140;2022-09-14T13:50:22;24.60;99.90
11961;DHT22;6040;49.358;11.140;2022-09-14T13:52:50;24.40;99.90
11961;DHT22;6040;49.358;11.140;2022-09-14T13:55:25;24.30;99.90
11961;DHT22;6040;49.358;11.140;2022-09-14T13:58:14;24.20;99.90
11961;DHT22;6040;49.358;11.140;2022-09-14T14:00:54;24.00;99.90
11961;DHT22;6040;49.358;11.140;2022-09-14T14:03:34;23.90;99.90
11961;DHT22;6040;49.358;11.140;2022-09-14T14:06:16;23.80;99.90
11961;DHT22;6040;49.358;11.140;2022-09-14T14:08:52;23.70;99.90
11961;DHT22;6040;49.358;11.140;2022-09-14T14:11:25;23.70;99.90
11961;DHT22;6040;49.358;11.140;2022-09-14T14:13:54;23.70;99.90
11961;DHT22;6040;49.358;11.140;2022-09-14T14:16:24;23.50;99.90
11961;DHT22;6040;49.358;11.140;2022-09-14T14:18:53;23.40;99.90
11961;DHT22;6040;49.358;11.140;2022-09-14T14:21:26;23.20;99.90
11961;DHT22;6040;49.358;11.140;2022-09-14T14:24:22;23.10;99.90
11961;DHT22;6040;49.358;11.140;2022-09-14T14:26:51;22.70;99.90
11961;DHT22;6040;49.358;11.140;2022-09-14T14:29:18;22.70;99.90
11961;DHT22;6040;49.358;11.140;2022-09-14T14:31:46;22.30;99.90
11961;DHT22;6040;49.358;11.140;2022-09-14T14:34:18;22.20;99.90
11961;DHT22;6040;49.358;11.140;2022-09-14T14:36:46;22.10;99.90
11961;DHT22;6040;49.358;11.140;2022-09-14T14:39:15;22.10;99.90
11961;DHT22;6040;49.358;11.140;2022-09-14T14:41:43;22.00;99.90
11961;DHT22;6040;49.358;11.140;2022-09-14T14:44:14;22.00;99.90
11961;DHT22;6040;49.358;11.140;2022-09-14T14:46:42;22.00;99.90
11961;DHT22;6040;49.358;11.140;2022-09-14T14:49:12;22.00;99.90
11961;DHT22;6040;49.358;11.140;2022-09-14T14:51:39;22.00;99.90
11961;DHT22;6040;49.358;11.140;2022-09-14T14:54:07;21.90;99.90
11961;DHT22;6040;49.358;11.140;2022-09-14T14:56:35;21.80;99.90
11961;DHT22;6040;49.358;11.140;2022-09-14T14:59:02;21.70;99.90
11961;DHT22;6040;49.358;11.140;2022-09-14T15:01:28;21.60;99.90
11961;DHT22;6040;49.358;11.140;2022-09-14T15:03:55;21.50;99.90
11961;DHT22;6040;49.358;11.140;2022-09-14T15:06:26;21.40;99.90
11961;DHT22;6040;49.358;11.140;2022-09-14T15:08:53;21.30;99.90
11961;DHT22;6040;49.358;11.140;2022-09-14T15:11:21;21.20;99.90
11961;DHT22;6040;49.358;11.140;2022-09-14T15:13:48;21.10;99.90
11961;DHT22;6040;49.358;11.140;2022-09-14T15:16:15;21.00;99.90
11961;DHT22;6040;49.358;11.140;2022-09-14T15:18:42;21.00;99.90
11961;DHT22;6040;49.358;11.140;2022-09-14T15:21:10;20.90;99.90
11961;DHT22;6040;49.358;11.140;2022-09-14T15:23:38;20.90;99.90
11961;DHT22;6040;49.358;11.140;2022-09-14T15:26:05;20.80;99.90
11961;DHT22;6040;49.358;11.140;2022-09-14T15:28:32;20.70;99.90
11961;DHT22;6040;49.358;11.140;2022-09-14T15:31:03;20.50;99.90
11961;DHT22;6040;49.358;11.140;2022-09-14T15:33:30;20.40;99.90
11961;DHT22;6040;49.358;11.140;2022-09-14T15:35:58;20.30;99.90
11961;DHT22;6040;49.358;11.140;2022-09-14T15:38:24;20.30;99.90
11961;DHT22;6040;49.358;11.140;2022-09-14T15:40:53;20.30;99.90
11961;DHT22;6040;49.358;11.140;2022-09-14T15:43:19;20.20;99.90
11961;DHT22;6040;49.358;11.140;2022-09-14T15:45:46;20.30;99.90
11961;DHT22;6040;49.358;11.140;2022-09-14T15:48:13;20.30;99.90
11961;DHT22;6040;49.358;11.140;2022-09-14T15:50:41;20.30;99.90
11961;DHT22;6040;49.358;11.140;2022-09-14T15:53:09;20.20;99.90
11961;DHT22;6040;49.358;11.140;2022-09-14T15:55:38;20.20;99.90
11961;DHT22;6040;49.358;11.140;2022-09-14T15:58:07;20.20;99.90
11961;DHT22;6040;49.358;11.140;2022-09-14T16:00:34;20.10;99.90
11961;DHT22;6040;49.358;11.140;2022-09-14T16:03:01;20.10;99.90